Time;durP1;ratioP1;P1;durP2;ratioP2;P2;SDS_P1;SDS_P2;PMS_P1;PMS_P2;Temp;Humidity;BMP_temperature;BMP_pressure;BME280_temperature;BME280_humidity;BME280_pressure;Samples;Min_cycle;Max_cycle;Signal;HPM_P1;HPM_P2
2023/12/01 00:02:58;;;;;;;81.50;40.00;;;;;;;-0.81;97.23;99403.96;105244;1264;98440;-77
2023/12/01 00:05:44;;;;;;;83.20;40.50;;;;;;;-0.83;97.04;99405.94;105351;1266;101474;-76
2023/12/01 00:08:30;;;;;;;79.10;40.30;;;;;;;-0.85;96.97;99407.13;105319;1264;99225;-77
2023/12/01 00:11:16;;;;;;;82.80;40.70;;;;;;;-0.87;96.84;99407.66;105189;1264;99303;-77
2023/12/01 00:14:01;;;;;;;79.50;40.60;;;;;;;-0.88;96.76;99406.17;105260;1259;98762;-76
2023/12/01 00:16:47;;;;;;;79.40;43.00;;;;;;;-0.88;96.74;99402.54;105303;1260;98524;-76
2023/12/01 00:19:32;;;;;;;78.70;42.00;;;;;;;-0.90;96.59;99400.23;105242;1259;101397;-77
2023/12/01 00:22:18;;;;;;;83.80;43.30;;;;;;;-0.91;96.43;99406.10;105051;1259;99169;-77
2023/12/01 00:25:05;;;;;;;84.00;42.90;;;;;;;-0.91;96.49;99406.99;105255;1259;98459;-76
2023/12/01 00:27:50;;;;;;;80.30;39.70;;;;;;;-0.95;96.18;99405.14;105182;1259;97991;-77
2023/12/01 00:30:37;;;;;;;78.90;40.00;;;;;;;-1.02;96.24;99400.18;105390;1260;98422;-76
2023/12/01 00:33:22;;;;;;;87.00;41.10;;;;;;;-1.04;96.60;99401.05;105422;1259;103076;-77
2023/12/01 00:36:09;;;;;;;93.40;43.50;;;;;;;-1.05;96.63;99405.31;105402;1259;100360;-76
2023/12/01 00:38:54;;;;;;;91.10;45.70;;;;;;;-1.04;96.73;99408.98;105321;1264;98601;-76
2023/12/01 00:41:40;;;;;;;86.40;44.10;;;;;;;-1.04;96.84;99411.03;105291;1265;98079;-76
2023/12/01 00:44:26;;;;;;;82.70;44.40;;;;;;;-1.03;96.69;99405.36;105307;1265;98494;-77
2023/12/01 00:47:12;;;;;;;85.90;43.20;;;;;;;-1.02;96.72;99408.23;105204;1265;102274;-77
2023/12/01 00:49:58;;;;;;;86.60;43.00;;;;;;;-1.03;96.67;99408.32;105232;1265;99150;-76
2023/12/01 00:52:44;;;;;;;83.90;41.20;;;;;;;-1.04;96.68;99406.52;105303;1259;99057;-76
2023/12/01 00:55:29;;;;;;;82.20;42.30;;;;;;;-1.05;96.74;99406.56;105223;1264;98088;-77
2023/12/01 00:58:15;;;;;;;89.30;43.60;;;;;;;-1.04;96.76;99408.95;105372;1259;98441;-76
2023/12/01 01:01:00;;;;;;;79.00;40.90;;;;;;;-1.06;96.70;99406.45;105403;1259;101413;-76
2023/12/01 01:03:46;;;;;;;83.60;44.20;;;;;;;-1.07;96.72;99408.36;105330;1263;100054;-76
2023/12/01 01:06:32;;;;;;;85.10;40.70;;;;;;;-1.07;96.73;99407.67;105316;1259;97977;-77
2023/12/01 01:09:17;;;;;;;81.60;41.00;;;;;;;-1.08;96.65;99410.41;105252;1265;97996;-76
2023/12/01 01:12:04;;;;;;;85.00;44.70;;;;;;;-1.10;96.41;99408.48;105402;1265;97890;-75
2023/12/01 01:14:49;;;;;;;86.50;44.10;;;;;;;-1.11;96.35;99407.02;105311;1264;102698;-77
2023/12/01 01:17:35;;;;;;;79.50;42.70;;;;;;;-1.14;96.18;99406.05;105198;1259;99859;-76
2023/12/01 01:20:20;;;;;;;88.30;43.70;;;;;;;-1.17;96.18;99402.30;105232;1259;99587;-76
2023/12/01 01:23:06;;;;;;;82.70;42.00;;;;;;;-1.17;96.46;99403.38;105295;1265;97986;-77
2023/12/01 01:25:52;;;;;;;90.80;43.50;;;;;;;-1.17;96.42;99404.44;105476;1259;97984;-77
2023/12/01 01:28:37;;;;;;;91.80;44.10;;;;;;;-1.18;96.19;99405.87;105322;1263;101402;-76
2023/12/01 01:31:23;;;;;;;88.40;44.50;;;;;;;-1.20;96.11;99406.92;105338;1265;100126;-77
2023/12/01 01:34:08;;;;;;;85.00;42.90;;;;;;;-1.21;95.99;99402.36;105328;1259;97971;-77
2023/12/01 01:36:55;;;;;;;80.00;42.00;;;;;;;-1.25;95.88;99398.33;105136;1259;99256;-76
2023/12/01 01:39:40;;;;;;;85.20;41.30;;;;;;;-1.29;95.82;99394.36;105070;1264;98494;-76
2023/12/01 01:42:26;;;;;;;87.80;41.10;;;;;;;-1.32;95.72;99392.52;105057;1264;101377;-77
2023/12/01 01:45:12;;;;;;;81.30;40.40;;;;;;;-1.36;95.58;99388.48;105306;1263;99157;-77
2023/12/01 01:47:58;;;;;;;87.30;43.60;;;;;;;-1.39;95.45;99386.88;105224;1259;98054;-77
2023/12/01 01:50:44;;;;;;;80.80;42.40;;;;;;;-1.41;95.78;99391.58;105362;1259;98135;-76
2023/12/01 01:53:29;;;;;;;83.10;42.30;;;;;;;-1.43;95.76;99395.23;105310;1264;97953;-77
2023/12/01 01:56:15;;;;;;;91.20;45.20;;;;;;;-1.47;95.34;99401.73;105157;1260;102701;-77
2023/12/01 01:59:01;;;;;;;84.70;41.40;;;;;;;-1.53;95.13;99406.52;105524;1264;99071;-77
2023/12/01 02:01:48;;;;;;;86.90;42.70;;;;;;;-1.58;94.74;99412.87;105350;1259;99010;-77
2023/12/01 02:04:33;;;;;;;86.20;42.90;;;;;;;-1.61;94.59;99410.43;105428;1259;97906;-77
2023/12/01 02:07:26;;;;;;;85.50;42.80;;;;;;;-1.65;94.58;99413.38;105363;1265;98074;-78
2023/12/01 02:10:15;;;;;;;89.00;43.40;;;;;;;-1.69;94.34;99412.70;105432;1265;101355;-77
2023/12/01 02:13:00;;;;;;;79.60;41.40;;;;;;;-1.74;94.09;99412.98;105336;1264;100173;-77
2023/12/01 02:15:48;;;;;;;82.30;41.70;;;;;;;-1.79;93.78;99404.71;105288;1265;98816;-76
2023/12/01 02:18:34;;;;;;;83.30;40.10;;;;;;;-1.86;93.71;99400.95;106326;1262;97964;-76
2023/12/01 02:21:27;;;;;;;84.70;42.00;;;;;;;-1.90;93.52;99405.17;105373;1259;98027;-76
2023/12/01 02:24:13;;;;;;;85.30;40.10;;;;;;;-1.95;93.23;99406.66;105506;1265;101319;-77
2023/12/01 02:26:59;;;;;;;83.50;40.70;;;;;;;-1.99;93.03;99410.38;105213;1259;99160;-76
2023/12/01 02:29:44;;;;;;;87.20;41.30;;;;;;;-2.03;92.92;99408.96;105360;1259;98559;-76
2023/12/01 02:32:29;;;;;;;94.80;43.80;;;;;;;-2.06;92.85;99404.19;105420;1264;98020;-78
2023/12/01 02:35:15;;;;;;;87.10;42.40;;;;;;;-2.09;92.78;99395.89;105422;1259;97971;-77
2023/12/01 02:38:00;;;;;;;87.70;42.90;;;;;;;-2.14;92.59;99395.42;105427;1265;102616;-76
2023/12/01 02:40:49;;;;;;;91.40;45.20;;;;;;;-2.18;92.81;99398.95;105188;1265;100354;-77
2023/12/01 02:43:35;;;;;;;83.80;42.80;;;;;;;-2.22;92.74;99404.00;105350;1260;98973;-76
2023/12/01 02:46:22;;;;;;;98.80;44.00;;;;;;;-2.26;92.77;99408.21;105298;1260;97984;-77
2023/12/01 02:49:08;;;;;;;91.90;43.80;;;;;;;-2.31;92.42;99413.73;104976;1260;98432;-77
2023/12/01 02:51:54;;;;;;;87.60;42.60;;;;;;;-2.37;91.99;99417.98;105167;1259;101339;-77
2023/12/01 02:54:39;;;;;;;85.10;43.80;;;;;;;-2.45;91.91;99414.98;105134;1259;99756;-78
2023/12/01 02:57:25;;;;;;;87.70;43.70;;;;;;;-2.49;92.05;99424.74;105097;1263;99039;-77
2023/12/01 03:00:13;;;;;;;84.10;41.30;;;;;;;-2.54;91.94;99426.77;105392;1260;99216;-77
2023/12/01 03:02:59;;;;;;;84.50;42.70;;;;;;;-2.59;91.85;99429.86;105464;1263;98528;-79
2023/12/01 03:05:45;;;;;;;87.50;45.80;;;;;;;-2.62;92.05;99433.81;105321;1264;101316;-77
2023/12/01 03:08:30;;;;;;;86.10;44.20;;;;;;;-2.66;92.12;99438.87;105325;1265;99095;-77
2023/12/01 03:11:21;;;;;;;89.70;44.90;;;;;;;-2.70;92.13;99440.98;105282;1263;97914;-77
2023/12/01 03:14:07;;;;;;;92.10;43.00;;;;;;;-2.72;91.99;99439.60;105288;1263;98350;-76
2023/12/01 03:16:56;;;;;;;88.60;41.90;;;;;;;-2.75;91.91;99437.93;105301;1265;98006;-78
2023/12/01 03:19:45;;;;;;;87.80;43.30;;;;;;;-2.78;91.82;99438.36;105343;1259;101347;-77
2023/12/01 03:22:30;;;;;;;88.20;44.90;;;;;;;-2.82;91.84;99439.94;105478;1264;99150;-77
2023/12/01 03:25:17;;;;;;;91.80;43.50;;;;;;;-2.87;91.58;99446.42;105403;1263;99068;-77
2023/12/01 03:28:04;;;;;;;87.70;42.50;;;;;;;-2.91;91.36;99443.15;105352;1259;97987;-77
2023/12/01 03:30:50;;;;;;;88.70;43.40;;;;;;;-2.95;91.15;99446.13;105449;1259;98602;-76
2023/12/01 03:33:35;;;;;;;90.00;42.80;;;;;;;-3.00;90.84;99451.05;105461;1265;102972;-76
2023/12/01 03:36:21;;;;;;;86.60;42.70;;;;;;;-3.05;90.69;99453.55;105295;1263;100562;-77
2023/12/01 03:39:06;;;;;;;99.00;45.20;;;;;;;-3.09;90.76;99452.36;105335;1262;97974;-77
2023/12/01 03:41:52;;;;;;;92.20;43.70;;;;;;;-3.14;90.66;99453.60;105231;1263;97972;-77
2023/12/01 03:44:38;;;;;;;89.70;41.40;;;;;;;-3.18;90.60;99462.68;105173;1265;99758;-77
2023/12/01 03:47:23;;;;;;;85.50;40.60;;;;;;;-3.26;90.36;99465.13;105211;1261;102653;-78
2023/12/01 03:50:11;;;;;;;87.30;40.80;;;;;;;-3.32;90.59;99467.17;105321;1263;100380;-77
2023/12/01 03:52:56;;;;;;;85.70;40.70;;;;;;;-3.35;90.72;99469.91;104977;1259;99081;-77
2023/12/01 03:55:43;;;;;;;91.10;43.20;;;;;;;-3.40;90.96;99469.23;105123;1259;97965;-77
2023/12/01 03:58:29;;;;;;;79.20;39.50;;;;;;;-3.49;91.31;99465.98;105095;1259;98472;-76
2023/12/01 04:01:14;;;;;;;96.20;44.10;;;;;;;-3.57;91.48;99468.23;105179;1266;101362;-77
2023/12/01 04:04:00;;;;;;;86.60;41.00;;;;;;;-3.63;91.49;99465.25;105372;1263;100678;-78
2023/12/01 04:06:45;;;;;;;88.30;41.70;;;;;;;-3.71;91.85;99463.12;105348;1259;98576;-76
2023/12/01 04:09:31;;;;;;;94.30;41.80;;;;;;;-3.80;92.05;99460.59;105302;1265;97956;-77
2023/12/01 04:12:17;;;;;;;92.30;41.50;;;;;;;-3.88;92.39;99459.00;105418;1264;97953;-77
2023/12/01 04:15:03;;;;;;;89.40;40.90;;;;;;;-3.97;92.54;99455.98;105437;1264;102708;-77
2023/12/01 04:17:49;;;;;;;93.50;40.60;;;;;;;-4.04;92.62;99450.98;105343;1260;99152;-76
2023/12/01 04:20:38;;;;;;;94.10;39.40;;;;;;;-4.11;92.82;99448.08;105384;1264;97820;-77
2023/12/01 04:23:24;;;;;;;95.40;40.00;;;;;;;-4.24;92.93;99447.39;105350;1259;97896;-77
2023/12/01 04:26:12;;;;;;;92.00;38.60;;;;;;;-4.32;93.36;99437.45;105274;1265;98543;-77
2023/12/01 04:28:57;;;;;;;82.50;33.70;;;;;;;-4.34;93.82;99439.98;105333;1265;103077;-77
2023/12/01 04:31:42;;;;;;;79.00;35.10;;;;;;;-4.46;93.51;99438.18;105380;1259;99215;-77
2023/12/01 04:34:28;;;;;;;84.90;34.90;;;;;;;-4.58;93.81;99435.16;105330;1260;98784;-77
2023/12/01 04:37:15;;;;;;;83.80;35.00;;;;;;;-4.71;94.11;99434.91;105315;1263;97853;-77
2023/12/01 04:40:00;;;;;;;86.50;39.00;;;;;;;-4.81;94.54;99437.10;105364;1265;98518;-77
2023/12/01 04:42:47;;;;;;;84.60;34.30;;;;;;;-4.78;95.28;99440.34;105363;1263;101403;-77
2023/12/01 04:45:35;;;;;;;77.70;31.00;;;;;;;-4.75;95.48;99438.77;105414;1260;99691;-78
2023/12/01 04:48:21;;;;;;;81.90;31.00;;;;;;;-4.80;95.91;99439.44;105508;1263;99041;-78
2023/12/01 04:51:06;;;;;;;77.10;28.40;;;;;;;-4.79;96.36;99450.19;105410;1259;98182;-78
2023/12/01 04:53:52;;;;;;;58.70;24.80;;;;;;;-4.83;96.58;99451.50;105376;1263;99560;-77
2023/12/01 04:56:37;;;;;;;67.70;25.90;;;;;;;-4.84;96.95;99456.66;105264;1263;101339;-77
2023/12/01 04:59:23;;;;;;;79.80;27.80;;;;;;;-4.86;97.13;99456.30;105293;1264;100407;-77
2023/12/01 05:02:08;;;;;;;68.30;27.70;;;;;;;-4.84;97.56;99454.60;105332;1263;97987;-78
2023/12/01 05:04:54;;;;;;;87.30;28.70;;;;;;;-4.78;98.21;99450.25;105333;1265;97965;-77
2023/12/01 05:07:39;;;;;;;64.10;25.80;;;;;;;-4.72;98.34;99452.73;105357;1259;98483;-77
2023/12/01 05:10:29;;;;;;;59.80;26.20;;;;;;;-4.68;98.40;99453.70;105294;1269;101398;-78
2023/12/01 05:13:15;;;;;;;61.30;25.30;;;;;;;-4.69;98.40;99457.23;105227;1264;100783;-78
2023/12/01 05:16:01;;;;;;;62.30;26.90;;;;;;;-4.68;98.63;99456.64;105346;1260;98048;-77
2023/12/01 05:18:47;;;;;;;74.60;27.30;;;;;;;-4.63;98.99;99456.27;105378;1259;97970;-77
2023/12/01 05:21:32;;;;;;;65.40;27.80;;;;;;;-4.60;98.96;99457.94;105376;1259;97210;-78
2023/12/01 05:24:18;;;;;;;71.90;27.50;;;;;;;-4.57;99.11;99460.54;105341;1262;101340;-77
2023/12/01 05:27:07;;;;;;;67.00;27.20;;;;;;;-4.57;98.94;99460.34;105314;1266;100059;-78
2023/12/01 05:29:53;;;;;;;68.90;25.80;;;;;;;-4.61;98.86;99460.33;105673;1274;98059;-79
2023/12/01 05:32:41;;;;;;;64.60;25.90;;;;;;;-4.66;98.79;99464.31;105436;1266;98016;-78
2023/12/01 05:35:26;;;;;;;69.90;27.90;;;;;;;-4.70;98.74;99461.65;105509;1264;98587;-78
2023/12/01 05:38:12;;;;;;;76.40;28.10;;;;;;;-4.71;99.06;99463.52;105367;1263;101328;-78
2023/12/01 05:40:57;;;;;;;79.60;31.30;;;;;;;-4.68;99.49;99468.52;105406;1264;100469;-77
2023/12/01 05:43:43;;;;;;;75.50;29.20;;;;;;;-4.61;99.76;99470.04;105326;1261;98037;-77
2023/12/01 05:46:29;;;;;;;73.80;29.80;;;;;;;-4.55;99.90;99480.91;105330;1261;97982;-77
2023/12/01 05:49:14;;;;;;;71.50;28.50;;;;;;;-4.53;99.86;99483.83;105305;1263;98383;-76
2023/12/01 05:52:00;;;;;;;66.30;27.70;;;;;;;-4.49;99.90;99489.98;105285;1259;101337;-77
2023/12/01 05:54:46;;;;;;;71.00;27.70;;;;;;;-4.48;99.79;99497.73;105336;1259;99949;-77
2023/12/01 05:57:32;;;;;;;80.00;30.90;;;;;;;-4.46;99.93;99507.36;105359;1260;97983;-77
2023/12/01 06:00:20;;;;;;;80.20;31.10;;;;;;;-4.41;100.00;99511.02;105438;1261;97874;-77
2023/12/01 06:03:10;;;;;;;77.30;29.50;;;;;;;-4.34;100.00;99514.77;105381;1264;98842;-76
2023/12/01 06:05:55;;;;;;;86.00;30.70;;;;;;;-4.28;99.99;99528.73;105679;1265;101394;-77
2023/12/01 06:08:42;;;;;;;81.60;29.40;;;;;;;-4.23;99.99;99535.85;105308;1264;99129;-77
2023/12/01 06:11:27;;;;;;;83.30;31.80;;;;;;;-4.18;99.99;99542.08;105316;1260;97903;-77
2023/12/01 06:14:13;;;;;;;90.00;32.90;;;;;;;-4.16;99.98;99543.80;105264;1263;97890;-77
2023/12/01 06:16:59;;;;;;;79.10;30.40;;;;;;;-4.12;100.00;99543.50;105256;1261;98409;-78
2023/12/01 06:19:44;;;;;;;73.00;29.30;;;;;;;-4.10;99.94;99548.41;105279;1263;101437;-77
2023/12/01 06:22:30;;;;;;;81.60;32.50;;;;;;;-4.10;99.77;99556.44;105372;1264;100073;-77
2023/12/01 06:25:20;;;;;;;90.00;32.80;;;;;;;-4.09;99.58;99554.63;105339;1265;98490;-77
2023/12/01 06:28:06;;;;;;;84.70;31.60;;;;;;;-4.04;99.87;99559.48;105282;1264;97969;-77
2023/12/01 06:30:51;;;;;;;85.40;33.00;;;;;;;-4.00;99.97;99560.91;105337;1265;98463;-77
2023/12/01 06:33:37;;;;;;;89.30;32.50;;;;;;;-3.98;99.90;99562.42;105348;1263;101358;-76
2023/12/01 06:36:22;;;;;;;82.20;34.10;;;;;;;-3.98;99.73;99565.55;105306;1273;99710;-76
2023/12/01 06:39:10;;;;;;;78.10;30.40;;;;;;;-3.98;99.52;99564.67;105355;1263;98036;-76
2023/12/01 06:41:55;;;;;;;82.60;31.00;;;;;;;-3.99;99.37;99563.23;105248;1265;99225;-77
2023/12/01 06:44:41;;;;;;;81.40;32.00;;;;;;;-3.99;99.37;99558.90;105278;1266;99700;-77
2023/12/01 06:47:26;;;;;;;87.00;34.60;;;;;;;-4.01;99.20;99557.31;105338;1263;101360;-76
2023/12/01 06:50:16;;;;;;;73.10;32.30;;;;;;;-4.01;99.21;99557.46;105444;1261;99440;-77
2023/12/01 06:53:02;;;;;;;83.40;34.10;;;;;;;-4.01;99.17;99554.81;105382;1266;98777;-77
2023/12/01 06:55:47;;;;;;;69.90;28.10;;;;;;;-4.02;99.00;99555.60;105347;1263;97883;-77
2023/12/01 06:58:33;;;;;;;91.00;37.00;;;;;;;-4.05;98.91;99560.19;105411;1263;98505;-78
2023/12/01 07:01:19;;;;;;;74.10;29.90;;;;;;;-4.10;98.81;99566.19;105381;1263;101411;-76
2023/12/01 07:04:07;;;;;;;87.00;35.70;;;;;;;-4.14;98.81;99565.80;105403;1271;100434;-78
2023/12/01 07:06:53;;;;;;;92.10;37.30;;;;;;;-4.15;98.95;99559.79;105436;1266;99076;-79
2023/12/01 07:09:41;;;;;;;77.80;32.00;;;;;;;-4.16;98.74;99559.66;105848;1263;97871;-78
2023/12/01 07:12:26;;;;;;;80.70;35.40;;;;;;;-4.21;98.53;99558.48;105441;1260;97967;-78
2023/12/01 07:15:12;;;;;;;75.80;31.80;;;;;;;-4.22;98.50;99552.14;105303;1269;102797;-77
2023/12/01 07:17:58;;;;;;;84.30;33.60;;;;;;;-4.22;98.76;99545.89;105427;1264;99107;-77
2023/12/01 07:20:43;;;;;;;73.00;29.70;;;;;;;-4.24;98.56;99551.09;105517;1264;97871;-78
2023/12/01 07:23:29;;;;;;;84.90;34.10;;;;;;;-4.28;98.33;99558.38;105311;1263;97967;-76
2023/12/01 07:26:15;;;;;;;86.00;38.20;;;;;;;-4.31;98.53;99558.93;105324;1264;97927;-77
2023/12/01 07:29:04;;;;;;;93.40;38.40;;;;;;;-4.30;98.62;99560.42;105299;1261;101394;-78
2023/12/01 07:31:51;;;;;;;88.90;33.80;;;;;;;-4.28;98.64;99556.45;105357;1267;99220;-77
2023/12/01 07:34:36;;;;;;;82.60;33.10;;;;;;;-4.29;98.50;99557.94;105349;1262;97959;-77
2023/12/01 07:37:22;;;;;;;86.20;37.60;;;;;;;-4.30;98.70;99564.66;105368;1266;97985;-77
2023/12/01 07:40:12;;;;;;;91.40;35.90;;;;;;;-4.29;98.77;99571.20;105345;1263;97989;-77
2023/12/01 07:42:57;;;;;;;87.80;36.10;;;;;;;-4.26;98.91;99573.03;105324;1263;101357;-76
2023/12/01 07:45:43;;;;;;;82.90;35.40;;;;;;;-4.25;98.96;99576.08;105259;1261;99122;-76
2023/12/01 07:48:28;;;;;;;84.30;34.00;;;;;;;-4.25;98.78;99575.60;105381;1260;99148;-77
2023/12/01 07:51:16;;;;;;;96.20;36.00;;;;;;;-4.27;98.74;99573.44;105336;1264;124417;-77
2023/12/01 07:54:02;;;;;;;93.40;37.80;;;;;;;-4.23;98.83;99576.48;105442;1263;98744;-77
2023/12/01 07:56:47;;;;;;;89.70;33.70;;;;;;;-4.20;98.79;99576.36;105502;1263;102616;-77
2023/12/01 07:59:33;;;;;;;89.10;34.90;;;;;;;-4.20;98.52;99569.23;105401;1273;100819;-76
2023/12/01 08:02:18;;;;;;;94.10;38.30;;;;;;;-4.18;98.57;99567.86;105246;1264;99107;-76
2023/12/01 08:05:04;;;;;;;81.10;32.40;;;;;;;-4.15;98.50;99565.04;105329;1263;98060;-77
2023/12/01 08:07:52;;;;;;;81.80;33.40;;;;;;;-4.17;98.22;99569.85;105392;1264;98818;-77
2023/12/01 08:10:37;;;;;;;88.50;32.50;;;;;;;-4.22;97.86;99571.67;105298;1260;102533;-77
2023/12/01 08:13:24;;;;;;;84.00;33.10;;;;;;;-4.26;97.88;99571.27;105409;1264;99130;-76
2023/12/01 08:16:10;;;;;;;77.90;34.70;;;;;;;-4.25;97.94;99569.83;105488;1264;97884;-77
2023/12/01 08:18:58;;;;;;;86.30;35.60;;;;;;;-4.28;97.78;99568.45;105408;1263;98386;-77
2023/12/01 08:21:44;;;;;;;95.00;37.60;;;;;;;-4.26;97.96;99570.05;105332;1264;98375;-77
2023/12/01 08:24:29;;;;;;;88.40;36.80;;;;;;;-4.23;97.90;99570.70;105283;1264;101331;-77
2023/12/01 08:27:15;;;;;;;74.50;31.20;;;;;;;-4.22;97.84;99578.61;105359;1262;99232;-78
2023/12/01 08:30:02;;;;;;;88.40;35.40;;;;;;;-4.26;97.35;99585.58;105315;1261;98732;-77
2023/12/01 08:32:48;;;;;;;81.00;32.70;;;;;;;-4.27;97.56;99585.68;105349;1259;98048;-77
2023/12/01 08:35:34;;;;;;;85.90;33.90;;;;;;;-4.27;97.45;99588.96;105396;1263;99697;-76
2023/12/01 08:38:20;;;;;;;90.10;35.40;;;;;;;-4.28;97.44;99592.52;105313;1264;101418;-77
2023/12/01 08:41:05;;;;;;;91.30;35.40;;;;;;;-4.32;97.27;99594.23;105410;1263;99142;-77
2023/12/01 08:43:51;;;;;;;87.40;33.90;;;;;;;-4.29;97.45;99599.08;105420;1261;97894;-78
2023/12/01 08:46:37;;;;;;;90.40;34.90;;;;;;;-4.28;97.46;99592.92;105348;1263;97966;-77
2023/12/01 08:49:22;;;;;;;98.80;37.60;;;;;;;-4.28;97.49;99593.77;105451;1273;98005;-77
2023/12/01 08:52:08;;;;;;;90.00;34.20;;;;;;;-4.28;97.54;99601.43;105398;1260;102602;-76
2023/12/01 08:54:54;;;;;;;92.40;36.60;;;;;;;-4.25;97.84;99602.59;105429;1264;99323;-77
2023/12/01 08:57:39;;;;;;;93.40;36.60;;;;;;;-4.21;97.98;99604.17;105389;1263;99109;-77
2023/12/01 09:00:25;;;;;;;88.80;37.30;;;;;;;-4.21;97.65;99601.77;105423;1264;99142;-77
2023/12/01 09:03:10;;;;;;;90.80;37.00;;;;;;;-4.22;97.58;99612.45;105314;1260;98488;-77
2023/12/01 09:05:56;;;;;;;91.80;37.80;;;;;;;-4.21;97.66;99624.39;105456;1261;102705;-76
2023/12/01 09:08:42;;;;;;;78.50;32.20;;;;;;;-4.24;97.35;99640.66;105422;1273;99690;-76
2023/12/01 09:11:28;;;;;;;89.20;34.00;;;;;;;-4.28;97.41;99648.30;105415;1276;98751;-77
2023/12/01 09:14:14;;;;;;;74.00;29.10;;;;;;;-4.27;97.66;99649.32;105374;1260;97963;-76
2023/12/01 09:17:00;;;;;;;84.50;34.20;;;;;;;-4.28;97.52;99655.10;105572;1261;98410;-77
2023/12/01 09:19:45;;;;;;;80.50;32.40;;;;;;;-4.24;97.59;99658.33;105370;1263;101366;-76
2023/12/01 09:22:31;;;;;;;70.60;29.20;;;;;;;-4.25;97.50;99657.64;105475;1260;99048;-77
2023/12/01 09:25:17;;;;;;;79.30;30.30;;;;;;;-4.30;97.31;99654.17;105385;1264;99367;-76
2023/12/01 09:28:03;;;;;;;74.00;28.30;;;;;;;-4.33;97.30;99653.56;105376;1261;98527;-77
2023/12/01 09:30:48;;;;;;;69.40;28.00;;;;;;;-4.33;97.41;99655.19;105455;1261;97871;-76
2023/12/01 09:33:34;;;;;;;84.00;31.80;;;;;;;-4.36;97.38;99656.55;105389;1264;101325;-77
2023/12/01 09:36:19;;;;;;;79.70;31.90;;;;;;;-4.37;97.50;99654.08;105352;1261;99150;-77
2023/12/01 09:39:05;;;;;;;84.20;33.40;;;;;;;-4.37;97.56;99648.11;105514;1259;98533;-77
2023/12/01 09:41:52;;;;;;;73.40;32.30;;;;;;;-4.34;97.83;99645.27;105420;1264;97964;-77
2023/12/01 09:44:38;;;;;;;87.80;37.30;;;;;;;-4.32;97.79;99643.36;105388;1259;98013;-77
2023/12/01 09:47:27;;;;;;;74.20;30.10;;;;;;;-4.32;97.79;99640.77;105369;1265;101390;-77
2023/12/01 09:50:14;;;;;;;100.00;41.20;;;;;;;-4.34;97.82;99640.02;105462;1260;100357;-77
2023/12/01 09:53:00;;;;;;;94.60;35.30;;;;;;;-4.31;98.02;99643.48;105397;1263;99079;-77
2023/12/01 09:55:45;;;;;;;78.10;31.30;;;;;;;-4.28;98.29;99646.34;105371;1264;98773;-78
2023/12/01 09:58:32;;;;;;;77.70;33.00;;;;;;;-4.27;97.96;99646.46;105523;1261;98511;-77
2023/12/01 10:01:19;;;;;;;86.40;36.60;;;;;;;-4.29;97.87;99643.64;105461;1261;101361;-76
2023/12/01 10:04:04;;;;;;;91.40;38.90;;;;;;;-4.24;98.13;99640.84;105422;1260;99121;-77
2023/12/01 10:06:50;;;;;;;88.80;36.00;;;;;;;-4.20;98.16;99644.03;105365;1260;99078;-77
2023/12/01 10:09:36;;;;;;;69.70;29.70;;;;;;;-4.19;98.08;99642.19;105403;1261;97983;-76
2023/12/01 10:12:21;;;;;;;75.90;30.10;;;;;;;-4.23;97.73;99644.45;105241;1260;98422;-75
2023/12/01 10:15:07;;;;;;;80.00;32.00;;;;;;;-4.22;98.04;99647.69;105446;1264;101342;-76
2023/12/01 10:18:10;;;;;;;75.10;30.10;;;;;;;-4.19;98.14;99646.90;106375;1263;100335;-77
2023/12/01 10:20:58;;;;;;;74.90;30.30;;;;;;;-4.15;98.23;99648.13;105452;1260;99021;-76
2023/12/01 10:23:43;;;;;;;87.50;33.70;;;;;;;-4.10;98.16;99645.70;105570;1263;98479;-77
2023/12/01 10:26:29;;;;;;;85.80;33.90;;;;;;;-4.08;98.01;99638.73;105383;1260;98889;-77
2023/12/01 10:29:29;;;;;;;78.40;34.90;;;;;;;-4.12;97.84;99640.04;105314;1264;101466;-76
2023/12/01 10:32:17;;;;;;;67.10;29.80;;;;;;;-4.15;97.71;99637.49;105354;1261;99062;-77
2023/12/01 10:35:05;;;;;;;79.70;33.30;;;;;;;-4.16;97.79;99636.76;105545;1259;98600;-77
2023/12/01 10:37:51;;;;;;;81.30;34.60;;;;;;;-4.12;98.56;99635.34;105265;1259;97948;-77
2023/12/01 10:40:37;;;;;;;91.00;34.00;;;;;;;-4.08;98.39;99637.64;105399;1260;98419;-77
2023/12/01 10:43:22;;;;;;;73.30;31.90;;;;;;;-4.05;98.29;99638.83;105417;1263;102223;-77
2023/12/01 10:46:11;;;;;;;64.90;27.90;;;;;;;-4.04;98.02;99634.61;105459;1260;99086;-77
2023/12/01 10:48:58;;;;;;;68.80;29.40;;;;;;;-4.09;97.57;99635.82;105363;1260;101103;-77
2023/12/01 10:51:45;;;;;;;67.50;29.80;;;;;;;-4.16;97.24;99639.85;105513;1260;97980;-77
2023/12/01 10:54:31;;;;;;;79.10;31.30;;;;;;;-4.21;97.16;99642.01;106927;1260;98430;-77
2023/12/01 10:57:30;;;;;;;69.50;28.30;;;;;;;-4.20;97.29;99639.68;105260;1264;102360;-77
2023/12/01 11:00:32;;;;;;;77.00;31.60;;;;;;;-4.19;97.64;99645.99;105341;1263;100125;-77
2023/12/01 11:03:24;;;;;;;84.10;33.20;;;;;;;-4.16;97.72;99643.04;105399;1261;98002;-77
2023/12/01 11:06:34;;;;;;;87.90;32.70;;;;;;;-4.13;97.96;99637.89;105200;1260;97967;-76
2023/12/01 11:09:33;;;;;;;83.20;33.90;;;;;;;-4.09;98.01;99640.41;105481;1259;98487;-77
2023/12/01 11:12:37;;;;;;;92.00;36.70;;;;;;;-4.07;98.10;99641.06;105358;1259;101381;-75
2023/12/01 11:15:26;;;;;;;83.10;34.60;;;;;;;-4.04;98.14;99639.81;105339;1263;100577;-76
2023/12/01 11:18:11;;;;;;;77.50;33.00;;;;;;;-4.01;98.15;99641.36;105364;1276;99308;-76
2023/12/01 11:20:56;;;;;;;84.90;34.60;;;;;;;-4.00;98.40;99631.16;105334;1263;97953;-77
2023/12/01 11:23:43;;;;;;;88.90;37.30;;;;;;;-4.01;98.06;99632.98;106065;1263;97833;-78
2023/12/01 11:26:31;;;;;;;88.10;36.50;;;;;;;-4.01;97.92;99638.23;105546;1264;101336;-77
2023/12/01 11:29:28;;;;;;;94.80;38.50;;;;;;;-4.02;97.99;99640.17;105590;1263;99751;-78
2023/12/01 11:32:14;;;;;;;85.80;35.40;;;;;;;-3.97;98.26;99643.23;105395;1262;99309;-77
2023/12/01 11:35:08;;;;;;;92.10;38.80;;;;;;;-3.93;98.12;99643.33;105413;1260;98792;-77
2023/12/01 11:38:04;;;;;;;87.00;38.10;;;;;;;-3.94;98.01;99643.71;105316;1259;97996;-77
2023/12/01 11:40:52;;;;;;;89.00;39.10;;;;;;;-3.96;97.86;99647.67;105305;1260;102627;-76
2023/12/01 11:43:38;;;;;;;88.50;40.40;;;;;;;-3.96;97.84;99651.59;105500;1263;100445;-78
2023/12/01 11:46:24;;;;;;;87.10;37.50;;;;;;;-3.93;97.98;99655.02;105353;1264;99326;-77
2023/12/01 11:49:10;;;;;;;77.90;36.00;;;;;;;-3.88;98.18;99647.83;105443;1263;99249;-77
2023/12/01 11:52:03;;;;;;;65.80;29.20;;;;;;;-3.86;98.29;99653.57;105412;1264;99141;-78
2023/12/01 11:54:49;;;;;;;73.40;30.60;;;;;;;-3.87;97.97;99656.61;105395;1259;101359;-77
2023/12/01 11:57:34;;;;;;;74.60;31.90;;;;;;;-3.88;97.77;99655.67;105257;1259;99132;-77
2023/12/01 12:00:20;;;;;;;78.70;31.50;;;;;;;-3.90;97.75;99655.08;105398;1263;97948;-77
2023/12/01 12:03:19;;;;;;;68.70;28.60;;;;;;;-3.89;97.96;99651.36;105408;1258;97935;-78
2023/12/01 12:06:07;;;;;;;77.90;30.80;;;;;;;-3.92;97.96;99652.28;105491;1263;98479;-77
2023/12/01 12:08:52;;;;;;;84.40;32.40;;;;;;;-3.91;98.19;99650.14;105355;1260;102146;-77
2023/12/01 12:11:39;;;;;;;82.90;32.20;;;;;;;-3.92;98.10;99646.54;105517;1259;100118;-77
2023/12/01 12:14:27;;;;;;;89.30;34.10;;;;;;;-3.90;98.39;99650.61;105406;1263;99053;-78
2023/12/01 12:17:12;;;;;;;89.70;34.50;;;;;;;-3.85;98.73;99649.15;105641;1260;98496;-77
2023/12/01 12:19:58;;;;;;;88.80;37.00;;;;;;;-3.82;98.87;99649.61;105446;1259;97973;-78
2023/12/01 12:22:44;;;;;;;89.40;37.00;;;;;;;-3.77;98.82;99642.81;105451;1260;101358;-78
2023/12/01 12:25:38;;;;;;;102.30;44.20;;;;;;;-3.73;99.05;99646.09;105384;1264;99162;-77
2023/12/01 12:28:24;;;;;;;110.60;46.70;;;;;;;-3.72;98.69;99647.09;105374;1260;97970;-78
2023/12/01 12:31:09;;;;;;;95.20;39.30;;;;;;;-3.71;98.86;99647.85;105337;1259;98054;-75
2023/12/01 12:33:56;;;;;;;121.10;49.70;;;;;;;-3.71;98.62;99645.39;105439;1259;98503;-77
2023/12/01 12:36:43;;;;;;;99.10;39.60;;;;;;;-3.66;98.89;99643.61;105440;1261;101376;-77